createdAt,value
2019-02-07T00:00:52.341Z,47.41
2019-02-07T00:03:20.496Z,47.44
2019-02-07T00:05:48.761Z,47.43
2019-02-07T00:08:17.243Z,47.45
2019-02-07T00:10:46.617Z,47.47
2019-02-07T00:13:14.714Z,47.50
2019-02-07T00:15:42.775Z,47.52
2019-02-07T00:18:13.984Z,47.56
2019-02-07T00:20:42.910Z,47.57
2019-02-07T00:23:10.956Z,47.61
2019-02-07T00:25:41.023Z,47.65
2019-02-07T00:28:09.102Z,47.67
2019-02-07T00:30:38.360Z,47.71
2019-02-07T00:33:06.491Z,47.74
2019-02-07T00:35:34.533Z,47.72
2019-02-07T00:38:02.578Z,47.77
2019-02-07T00:40:32.248Z,47.77
2019-02-07T00:43:00.451Z,47.83
2019-02-07T00:45:28.661Z,47.86
2019-02-07T00:47:56.762Z,47.90
2019-02-07T00:50:25.011Z,47.91
2019-02-07T00:52:53.152Z,47.90
2019-02-07T00:55:21.721Z,47.90
2019-02-07T00:57:51.668Z,47.91
2019-02-07T01:00:22.196Z,47.91
2019-02-07T01:02:50.433Z,47.94
2019-02-07T01:05:19.502Z,47.99
2019-02-07T01:07:47.564Z,48.01
2019-02-07T01:10:21.014Z,48.03
2019-02-07T01:12:49.096Z,48.05
2019-02-07T01:15:17.803Z,48.07
2019-02-07T01:17:47.065Z,48.09
2019-02-07T01:20:15.615Z,48.10
2019-02-07T01:22:43.939Z,48.12
2019-02-07T01:25:15.830Z,48.12
2019-02-07T01:27:43.901Z,48.17
2019-02-07T01:30:17.523Z,48.16
2019-02-07T01:32:46.007Z,48.17
2019-02-07T01:35:14.597Z,48.21
2019-02-07T01:37:42.741Z,48.26
2019-02-07T01:40:14.763Z,48.30
2019-02-07T01:42:42.804Z,48.36
2019-02-07T01:45:13.618Z,48.38
2019-02-07T01:47:42.187Z,48.38
2019-02-07T01:50:14.065Z,48.39
2019-02-07T01:52:42.415Z,48.45
2019-02-07T01:55:10.885Z,48.42
2019-02-07T01:57:41.183Z,48.45
2019-02-07T02:00:13.279Z,48.47
2019-02-07T02:02:42.329Z,48.50
2019-02-07T02:05:12.718Z,48.49
2019-02-07T02:07:42.117Z,48.51
2019-02-07T02:10:14.785Z,48.53
2019-02-07T02:12:44.053Z,48.54
2019-02-07T02:15:24.005Z,48.57
2019-02-07T02:17:45.057Z,48.56
2019-02-07T02:20:14.438Z,48.58
2019-02-07T02:22:42.915Z,48.58
2019-02-07T02:25:11.377Z,48.61
2019-02-07T02:27:40.736Z,48.64
2019-02-07T02:30:21.800Z,48.65
2019-02-07T02:32:49.939Z,48.67
2019-02-07T02:35:18.745Z,48.73
2019-02-07T02:37:47.119Z,48.75
2019-02-07T02:40:15.389Z,48.77
2019-02-07T02:42:43.782Z,48.80
2019-02-07T02:45:13.632Z,48.84
2019-02-07T02:47:43.099Z,48.87
2019-02-07T02:50:14.481Z,48.90
2019-02-07T02:52:42.525Z,48.92
2019-02-07T02:55:12.230Z,48.93
2019-02-07T02:57:41.315Z,48.94
2019-02-07T03:00:15.901Z,48.97
2019-02-07T03:03:06.555Z,49.01
2019-02-07T03:05:58.313Z,49.04
2019-02-07T03:08:49.013Z,49.07
2019-02-07T03:11:40.959Z,49.10
2019-02-07T03:14:19.055Z,49.14
2019-02-07T03:17:05.733Z,49.14
2019-02-07T03:20:05.397Z,49.15
2019-02-07T03:22:53.087Z,49.14
2019-02-07T03:25:40.933Z,49.11
2019-02-07T03:28:27.784Z,49.12
2019-02-07T03:31:19.119Z,49.11
2019-02-07T03:34:11.614Z,49.11
2019-02-07T03:36:59.398Z,49.10
2019-02-07T03:39:49.940Z,49.09
2019-02-07T03:42:36.499Z,49.10
2019-02-07T03:45:29.433Z,49.12
2019-02-07T03:48:16.144Z,49.13
2019-02-07T03:51:02.741Z,49.14
2019-02-07T03:54:02.227Z,49.16
2019-02-07T03:57:07.983Z,49.17
2019-02-07T03:59:55.704Z,49.19
2019-02-07T04:02:42.250Z,49.22
2019-02-07T04:05:42.260Z,49.31
2019-02-07T04:08:25.244Z,49.32
2019-02-07T04:11:07.582Z,49.33
2019-02-07T04:13:58.531Z,49.38
2019-02-07T04:16:44.946Z,49.41
2019-02-07T04:19:31.479Z,49.39
2019-02-07T04:22:22.504Z,49.39
2019-02-07T04:25:08.718Z,49.40
2019-02-07T04:27:47.602Z,49.41
2019-02-07T04:30:35.401Z,49.44
2019-02-07T04:33:21.902Z,49.45
2019-02-07T04:36:30.481Z,49.47
2019-02-07T04:39:33.315Z,49.44
2019-02-07T04:42:21.520Z,49.45
2019-02-07T04:45:09.222Z,49.48
2019-02-07T04:48:05.662Z,49.53
2019-02-07T04:50:53.420Z,49.58
2019-02-07T04:53:43.881Z,49.59
2019-02-07T04:56:37.660Z,49.61
2019-02-07T04:59:19.817Z,49.65
2019-02-07T05:01:58.975Z,49.68
2019-02-07T05:04:42.090Z,49.69
2019-02-07T05:07:38.662Z,49.74
2019-02-07T05:10:27.643Z,49.76
2019-02-07T05:13:15.450Z,49.73
2019-02-07T05:16:13.364Z,49.72
2019-02-07T05:19:19.740Z,49.74
2019-02-07T05:22:13.930Z,49.70
2019-02-07T05:24:58.114Z,49.70
2019-02-07T05:28:05.930Z,49.74
2019-02-07T05:30:52.228Z,49.75
2019-02-07T05:33:38.485Z,49.71
2019-02-07T05:36:23.344Z,49.75
2019-02-07T05:39:10.104Z,49.74
2019-02-07T05:42:10.453Z,49.78
2019-02-07T05:44:58.164Z,49.82
2019-02-07T05:47:54.579Z,49.84
2019-02-07T05:51:16.389Z,49.85
2019-02-07T05:54:51.315Z,49.87
2019-02-07T05:57:38.902Z,49.82
2019-02-07T06:00:28.789Z,49.84
2019-02-07T06:03:20.538Z,49.81
2019-02-07T06:06:07.197Z,49.84
2019-02-07T06:09:04.878Z,49.86
2019-02-07T06:11:52.651Z,49.84
2019-02-07T06:14:49.838Z,49.86
2019-02-07T06:17:36.700Z,49.84
2019-02-07T06:20:35.011Z,49.83
2019-02-07T06:23:24.064Z,49.84
2019-02-07T06:26:21.046Z,49.86
2019-02-07T06:29:15.972Z,49.87
2019-02-07T06:32:02.339Z,49.86
2019-02-07T06:34:47.082Z,49.87
2019-02-07T06:37:24.918Z,49.85
2019-02-07T06:40:28.597Z,49.86
2019-02-07T06:43:31.415Z,49.89
2019-02-07T06:46:09.199Z,49.88
2019-02-07T06:49:00.740Z,49.85
2019-02-07T06:51:51.639Z,49.86
2019-02-07T06:54:45.179Z,49.85
2019-02-07T06:57:37.866Z,49.86
2019-02-07T07:00:37.598Z,49.86
2019-02-07T07:03:28.675Z,49.88
2019-02-07T07:06:22.054Z,49.85
2019-02-07T07:09:19.317Z,49.82
2019-02-07T07:12:04.272Z,49.83
2019-02-07T07:14:39.964Z,49.83
2019-02-07T07:17:30.209Z,49.88
2019-02-07T07:20:12.699Z,49.94
2019-02-07T07:22:51.187Z,49.99
2019-02-07T07:25:53.942Z,50.02
2019-02-07T07:28:50.600Z,50.04
2019-02-07T07:31:38.313Z,50.05
2019-02-07T07:34:34.350Z,50.08
2019-02-07T07:37:20.701Z,50.15
2019-02-07T07:40:08.390Z,50.14
2019-02-07T07:42:58.693Z,50.17
2019-02-07T07:45:47.076Z,50.18
2019-02-07T07:48:37.324Z,50.20
2019-02-07T07:51:23.830Z,50.25
2019-02-07T07:54:10.024Z,50.27
2019-02-07T07:57:03.907Z,50.27
2019-02-07T07:59:52.530Z,50.27
2019-02-07T08:02:55.576Z,50.26
2019-02-07T08:05:46.622Z,50.27
2019-02-07T08:08:43.520Z,50.29
2019-02-07T08:11:26.886Z,50.30
2019-02-07T08:14:15.022Z,50.31
2019-02-07T08:16:54.719Z,50.33
2019-02-07T08:19:42.416Z,50.36
2019-02-07T08:22:39.077Z,50.38
2019-02-07T08:25:24.651Z,50.38
2019-02-07T08:28:15.112Z,50.42
2019-02-07T08:31:21.161Z,50.44
2019-02-07T08:34:11.221Z,50.45
2019-02-07T08:36:57.386Z,50.45
2019-02-07T08:40:00.678Z,50.47
2019-02-07T08:42:51.067Z,50.53
2019-02-07T08:45:45.180Z,50.55
2019-02-07T08:48:35.875Z,50.58
2019-02-07T08:51:26.562Z,50.60
2019-02-07T08:54:13.166Z,50.61
2019-02-07T08:57:06.573Z,50.64
2019-02-07T08:59:49.359Z,50.63
2019-02-07T09:02:36.056Z,50.62
2019-02-07T09:05:29.981Z,50.65
2019-02-07T09:08:16.400Z,50.65
2019-02-07T09:11:16.409Z,50.65
2019-02-07T09:14:17.762Z,50.65
2019-02-07T09:17:14.733Z,50.68
2019-02-07T09:20:00.859Z,50.73
2019-02-07T09:22:46.074Z,50.78
2019-02-07T09:25:42.286Z,50.82
2019-02-07T09:28:39.044Z,50.86
2019-02-07T09:31:25.491Z,50.88
2019-02-07T09:34:12.424Z,50.90
2019-02-07T09:37:13.604Z,50.92
2019-02-07T09:39:48.336Z,50.95
2019-02-07T09:42:36.715Z,50.99
2019-02-07T09:45:35.526Z,51.06
2019-02-07T09:48:35.018Z,51.10
2019-02-07T09:51:12.959Z,51.13
2019-02-07T09:54:13.177Z,51.14
2019-02-07T09:57:15.775Z,51.22
2019-02-07T10:00:06.188Z,51.24
2019-02-07T10:02:54.286Z,51.24
2019-02-07T10:05:42.330Z,51.29
2019-02-07T10:08:28.657Z,51.33
2019-02-07T10:11:28.814Z,51.36
2019-02-07T10:14:23.438Z,51.36
2019-02-07T10:17:14.378Z,51.39
2019-02-07T10:20:10.957Z,51.41
2019-02-07T10:22:55.912Z,51.44
2019-02-07T10:25:52.648Z,51.46
2019-02-07T10:28:38.837Z,51.50
2019-02-07T10:31:25.102Z,51.52
2019-02-07T10:34:13.595Z,51.54
2019-02-07T10:36:59.789Z,51.54
2019-02-07T10:39:46.004Z,51.59
2019-02-07T10:42:32.548Z,51.61
2019-02-07T10:45:18.601Z,51.61
2019-02-07T10:48:06.473Z,51.64
2019-02-07T10:50:55.800Z,51.69
2019-02-07T10:53:46.890Z,51.73
2019-02-07T10:56:33.066Z,51.78
2019-02-07T10:59:13.172Z,51.85
2019-02-07T11:02:03.548Z,51.91
2019-02-07T11:05:03.418Z,51.96
2019-02-07T11:07:49.927Z,51.99
2019-02-07T11:10:36.065Z,51.97
2019-02-07T11:13:22.893Z,51.98
2019-02-07T11:16:16.471Z,52.00
2019-02-07T11:19:05.143Z,51.99
2019-02-07T11:21:54.382Z,52.01
2019-02-07T11:25:00.357Z,51.99
2019-02-07T11:27:48.037Z,51.98
2019-02-07T11:30:36.579Z,51.97
2019-02-07T11:33:27.004Z,52.05
2019-02-07T11:36:07.893Z,52.08
2019-02-07T11:39:11.138Z,52.14
2019-02-07T11:42:01.841Z,52.19
2019-02-07T11:44:55.923Z,52.22
2019-02-07T11:47:42.564Z,52.29
2019-02-07T11:50:33.272Z,52.35
2019-02-07T11:53:36.677Z,52.37
2019-02-07T11:56:14.643Z,52.41
2019-02-07T11:58:54.951Z,52.44
2019-02-07T12:01:41.153Z,52.48
2019-02-07T12:04:36.765Z,52.54
2019-02-07T12:07:20.415Z,52.56
2019-02-07T12:10:14.741Z,52.57
2019-02-07T12:12:57.806Z,52.62
2019-02-07T12:15:43.001Z,52.65
2019-02-07T12:18:36.964Z,52.70
2019-02-07T12:21:40.642Z,52.76
2019-02-07T12:24:28.770Z,52.80
2019-02-07T12:27:25.556Z,52.84
2019-02-07T12:30:15.794Z,52.88
2019-02-07T12:33:07.131Z,52.92
2019-02-07T12:36:07.468Z,52.93
2019-02-07T12:38:46.180Z,52.97
2019-02-07T12:41:32.864Z,52.97
2019-02-07T12:44:19.061Z,53.05
2019-02-07T12:47:16.129Z,53.06
2019-02-07T12:50:02.592Z,53.08
2019-02-07T12:52:53.938Z,53.08
2019-02-07T12:55:53.765Z,53.11
2019-02-07T12:59:00.021Z,53.12
2019-02-07T13:01:47.841Z,53.10
2019-02-07T13:04:49.611Z,53.11
2019-02-07T13:07:49.730Z,53.10
2019-02-07T13:10:39.270Z,53.09
2019-02-07T13:13:26.997Z,53.06
2019-02-07T13:16:06.780Z,53.05
2019-02-07T13:19:01.763Z,53.05
2019-02-07T13:21:48.008Z,53.06
2019-02-07T13:24:35.790Z,53.05
2019-02-07T13:27:26.773Z,53.08
2019-02-07T13:30:23.456Z,53.09
2019-02-07T13:33:09.910Z,53.10
2019-02-07T13:35:55.818Z,53.11
2019-02-07T13:38:42.350Z,53.13
2019-02-07T13:41:28.635Z,53.14
2019-02-07T13:44:14.942Z,53.13
2019-02-07T13:46:59.108Z,53.12
2019-02-07T13:49:51.451Z,53.10
2019-02-07T13:52:29.720Z,53.09
2019-02-07T13:55:21.230Z,53.14
2019-02-07T13:58:12.475Z,53.18
2019-02-07T14:01:04.005Z,53.16
2019-02-07T14:03:50.327Z,53.16
2019-02-07T14:06:36.011Z,53.14
2019-02-07T14:09:26.530Z,53.15
2019-02-07T14:12:19.811Z,53.12
2019-02-07T14:15:22.591Z,53.18
2019-02-07T14:18:12.358Z,53.23
2019-02-07T14:21:00.040Z,53.31
2019-02-07T14:23:51.429Z,53.41
2019-02-07T14:26:38.204Z,53.46
2019-02-07T14:29:24.666Z,53.52
2019-02-07T14:32:06.986Z,53.60
2019-02-07T14:34:57.789Z,53.67
2019-02-07T14:37:48.244Z,53.78
2019-02-07T14:40:41.845Z,53.80
2019-02-07T14:43:29.829Z,53.83
2019-02-07T14:46:23.833Z,53.83
2019-02-07T14:48:51.957Z,53.90
2019-02-07T14:51:20.000Z,53.92
2019-02-07T14:53:49.146Z,53.99
2019-02-07T14:56:17.259Z,54.02
2019-02-07T14:58:45.383Z,54.06
2019-02-07T15:01:13.434Z,54.09
2019-02-07T15:03:42.859Z,54.07
2019-02-07T15:06:10.983Z,54.10
2019-02-07T15:08:39.195Z,54.14
2019-02-07T15:11:07.573Z,54.17
2019-02-07T15:13:35.710Z,54.21
2019-02-07T15:16:04.241Z,54.24
2019-02-07T15:18:32.305Z,54.28
2019-02-07T15:21:00.752Z,54.32
2019-02-07T15:23:28.840Z,54.34
2019-02-07T15:25:57.045Z,54.36
2019-02-07T15:28:25.494Z,54.39
2019-02-07T15:30:53.600Z,54.41
2019-02-07T15:33:21.981Z,54.43
2019-02-07T15:35:51.068Z,54.46
2019-02-07T15:38:19.226Z,54.48
2019-02-07T15:40:47.712Z,54.51
2019-02-07T15:43:16.208Z,54.54
2019-02-07T15:45:44.577Z,54.56
2019-02-07T15:48:13.812Z,54.60
2019-02-07T15:50:42.177Z,54.62
2019-02-07T15:53:10.359Z,54.63
2019-02-07T15:55:38.460Z,54.65
2019-02-07T15:58:06.634Z,54.65
2019-02-07T16:01:03.880Z,54.67
2019-02-07T16:03:41.138Z,54.69
2019-02-07T16:06:09.244Z,54.64
2019-02-07T16:08:37.340Z,54.64
2019-02-07T16:11:06.283Z,54.68
2019-02-07T16:13:34.761Z,54.68
2019-02-07T16:16:03.043Z,54.70
2019-02-07T16:18:31.111Z,54.69
2019-02-07T16:20:59.430Z,54.71
2019-02-07T16:23:28.218Z,54.74
2019-02-07T16:25:56.469Z,54.75
2019-02-07T16:28:24.597Z,54.77
2019-02-07T16:30:52.807Z,54.77
2019-02-07T16:33:20.897Z,54.79
2019-02-07T16:35:50.484Z,54.79
2019-02-07T16:38:18.795Z,54.79
2019-02-07T16:40:47.174Z,54.78
2019-02-07T16:43:15.216Z,54.80
2019-02-07T16:45:49.267Z,54.79
2019-02-07T16:48:17.471Z,54.75
2019-02-07T16:50:46.078Z,54.75
2019-02-07T16:53:14.310Z,54.74
2019-02-07T16:55:42.438Z,54.76
2019-02-07T16:58:10.558Z,54.83
2019-02-07T17:00:39.086Z,54.86
2019-02-07T17:03:07.341Z,54.87
2019-02-07T17:05:37.920Z,54.90
2019-02-07T17:08:07.939Z,54.93
2019-02-07T17:10:37.677Z,54.96
2019-02-07T17:13:44.885Z,54.99
2019-02-07T17:16:20.607Z,55.01
2019-02-07T17:18:49.188Z,55.01
2019-02-07T17:21:17.754Z,55.04
2019-02-07T17:23:46.364Z,55.07
2019-02-07T17:26:15.276Z,55.05
2019-02-07T17:28:43.661Z,55.02
2019-02-07T17:31:11.869Z,55.05
2019-02-07T17:33:40.027Z,55.07
2019-02-07T17:36:08.247Z,55.09
2019-02-07T17:38:36.697Z,55.10
2019-02-07T17:41:04.878Z,55.12
2019-02-07T17:43:33.180Z,55.16
2019-02-07T17:46:01.377Z,55.20
2019-02-07T17:48:29.658Z,55.22
2019-02-07T17:50:57.801Z,55.25
2019-02-07T17:53:25.983Z,55.25
2019-02-07T17:55:54.142Z,55.29
2019-02-07T17:58:22.652Z,55.31
2019-02-07T18:01:00.936Z,55.35
2019-02-07T18:03:29.146Z,55.40
2019-02-07T18:05:57.251Z,55.38
2019-02-07T18:08:25.408Z,55.42
2019-02-07T18:10:53.611Z,55.46
2019-02-07T18:13:23.675Z,55.47
2019-02-07T18:15:53.069Z,55.49
2019-02-07T18:18:22.472Z,55.50
2019-02-07T18:20:51.630Z,55.47
2019-02-07T18:23:22.016Z,55.48
2019-02-07T18:25:53.037Z,55.47
2019-02-07T18:28:22.028Z,55.47
2019-02-07T18:30:53.254Z,55.48
2019-02-07T18:33:22.635Z,55.51
2019-02-07T18:35:53.026Z,55.51
2019-02-07T18:38:22.639Z,55.51
2019-02-07T18:40:51.136Z,55.51
2019-02-07T18:43:22.076Z,55.52
2019-02-07T18:45:53.420Z,55.50
2019-02-07T18:48:22.130Z,55.46
2019-02-07T18:50:51.123Z,55.43
2019-02-07T18:53:21.469Z,55.42
2019-02-07T18:55:56.539Z,55.42
2019-02-07T18:58:27.092Z,55.42
2019-02-07T19:00:56.890Z,55.42
2019-02-07T19:03:28.243Z,55.43
2019-02-07T19:05:58.759Z,55.46
2019-02-07T19:08:29.893Z,55.45
2019-02-07T19:11:01.794Z,55.46
2019-02-07T19:13:32.177Z,55.46
2019-02-07T19:16:12.812Z,55.48
2019-02-07T19:18:42.465Z,55.51
2019-02-07T19:21:14.105Z,55.51
2019-02-07T19:23:44.556Z,55.53
2019-02-07T19:26:15.953Z,55.53
2019-02-07T19:28:47.954Z,55.51
2019-02-07T19:31:18.380Z,55.54
2019-02-07T19:33:48.312Z,55.57
2019-02-07T19:36:18.473Z,55.60
2019-02-07T19:38:48.451Z,55.62
2019-02-07T19:41:19.681Z,55.64
2019-02-07T19:43:51.264Z,55.64
2019-02-07T19:46:21.507Z,55.67
2019-02-07T19:48:51.776Z,55.64
2019-02-07T19:51:23.777Z,55.69
2019-02-07T19:53:55.317Z,55.74
2019-02-07T19:56:26.271Z,55.76
2019-02-07T19:58:57.974Z,55.79
2019-02-07T20:01:28.841Z,55.79
2019-02-07T20:03:58.901Z,55.80
2019-02-07T20:06:29.827Z,55.82
2019-02-07T20:09:02.858Z,55.83
2019-02-07T20:11:35.367Z,55.87
2019-02-07T20:14:06.508Z,55.85
2019-02-07T20:16:35.892Z,55.88
2019-02-07T20:19:05.748Z,55.89
2019-02-07T20:21:35.795Z,55.93
2019-02-07T20:24:06.905Z,55.95
2019-02-07T20:26:36.663Z,55.99
2019-02-07T20:29:06.774Z,56.03
2019-02-07T20:31:37.443Z,56.05
2019-02-07T20:34:07.093Z,56.08
2019-02-07T20:36:35.637Z,56.13
2019-02-07T20:39:08.428Z,56.19
2019-02-07T20:41:38.221Z,56.25
2019-02-07T20:44:08.917Z,56.23
2019-02-07T20:46:38.622Z,56.27
2019-02-07T20:49:08.595Z,56.31
2019-02-07T20:51:38.017Z,56.34
2019-02-07T20:54:07.145Z,56.38
2019-02-07T20:56:38.383Z,56.42
2019-02-07T20:59:09.496Z,56.46
2019-02-07T21:01:40.164Z,56.46
2019-02-07T21:04:09.637Z,56.47
2019-02-07T21:06:39.456Z,56.50
2019-02-07T21:09:10.346Z,56.52
2019-02-07T21:11:39.210Z,56.52
2019-02-07T21:14:08.003Z,56.51
2019-02-07T21:16:36.310Z,56.52
2019-02-07T21:19:05.878Z,56.51
2019-02-07T21:21:35.307Z,56.54
2019-02-07T21:24:04.247Z,56.56
2019-02-07T21:26:32.545Z,56.56
2019-02-07T21:29:00.770Z,56.55
2019-02-07T21:31:29.019Z,56.55
2019-02-07T21:33:57.653Z,56.56
2019-02-07T21:36:25.885Z,56.59
2019-02-07T21:38:54.234Z,56.61
2019-02-07T21:41:22.332Z,56.65
2019-02-07T21:43:50.747Z,56.71
2019-02-07T21:46:20.100Z,56.75
2019-02-07T21:48:48.415Z,56.75
2019-02-07T21:51:16.626Z,56.77
2019-02-07T21:53:44.746Z,56.82
2019-02-07T21:56:12.856Z,56.86
2019-02-07T21:58:40.980Z,56.85
2019-02-07T22:01:10.145Z,56.87
2019-02-07T22:03:39.360Z,56.91
2019-02-07T22:06:07.500Z,56.92
2019-02-07T22:08:36.094Z,56.93
2019-02-07T22:11:04.731Z,56.93
2019-02-07T22:13:32.832Z,56.94
2019-02-07T22:16:01.196Z,56.98
2019-02-07T22:18:29.842Z,56.98
2019-02-07T22:20:57.920Z,56.98
2019-02-07T22:23:26.340Z,56.99
2019-02-07T22:25:55.273Z,56.98
2019-02-07T22:28:24.946Z,57.02
2019-02-07T22:30:54.111Z,57.01
2019-02-07T22:33:22.528Z,57.00
2019-02-07T22:35:51.272Z,57.00
2019-02-07T22:38:21.006Z,57.02
2019-02-07T22:40:49.456Z,57.03
2019-02-07T22:43:17.555Z,57.04
2019-02-07T22:45:45.853Z,57.07
2019-02-07T22:48:14.392Z,57.08
2019-02-07T22:50:42.529Z,57.06
2019-02-07T22:53:10.666Z,57.07
2019-02-07T22:55:39.795Z,57.09
2019-02-07T22:58:08.411Z,57.07
2019-02-07T23:01:53.491Z,57.09
2019-02-07T23:04:23.556Z,57.12
2019-02-07T23:06:52.820Z,57.09
2019-02-07T23:09:21.029Z,57.13
2019-02-07T23:11:49.407Z,57.17
2019-02-07T23:14:17.845Z,57.17
2019-02-07T23:16:45.985Z,57.20
2019-02-07T23:19:14.280Z,57.22
2019-02-07T23:21:42.960Z,57.22
2019-02-07T23:24:11.170Z,57.25
2019-02-07T23:26:40.327Z,57.25
2019-02-07T23:29:08.843Z,57.26
2019-02-07T23:31:37.252Z,57.25
2019-02-07T23:34:05.929Z,57.25
2019-02-07T23:36:34.762Z,57.26
2019-02-07T23:39:06.996Z,57.26
2019-02-07T23:41:35.117Z,57.25
2019-02-07T23:44:05.109Z,57.25
2019-02-07T23:46:33.167Z,57.26
2019-02-07T23:49:01.288Z,57.26
2019-02-07T23:51:29.364Z,57.29
2019-02-07T23:53:58.581Z,57.29
2019-02-07T23:56:26.658Z,57.29
2019-02-07T23:58:54.775Z,57.31
